sensor_id;sensor_type;location;lat;lon;timestamp;temperature;humidity
10155;DHT22;5118;48.570;7.916;2023-11-21T00:00:07;9.60;99.90
10155;DHT22;5118;48.570;7.916;2023-11-21T00:02:40;9.60;99.90
10155;DHT22;5118;48.570;7.916;2023-11-21T00:05:09;9.60;99.90
10155;DHT22;5118;48.570;7.916;2023-11-21T00:07:38;9.60;99.90
10155;DHT22;5118;48.570;7.916;2023-11-21T00:10:07;9.60;99.90
10155;DHT22;5118;48.570;7.916;2023-11-21T00:12:39;9.60;99.90
10155;DHT22;5118;48.570;7.916;2023-11-21T00:15:10;9.60;99.90
10155;DHT22;5118;48.570;7.916;2023-11-21T00:17:39;9.60;99.90
10155;DHT22;5118;48.570;7.916;2023-11-21T00:20:10;9.50;99.90
10155;DHT22;5118;48.570;7.916;2023-11-21T00:22:41;9.50;99.90
10155;DHT22;5118;48.570;7.916;2023-11-21T00:25:10;9.60;99.90
10155;DHT22;5118;48.570;7.916;2023-11-21T00:27:40;9.60;99.90
10155;DHT22;5118;48.570;7.916;2023-11-21T00:30:10;9.60;99.90
10155;DHT22;5118;48.570;7.916;2023-11-21T00:32:38;9.60;99.90
10155;DHT22;5118;48.570;7.916;2023-11-21T00:35:07;9.60;99.90
10155;DHT22;5118;48.570;7.916;2023-11-21T00:37:36;9.60;99.90
10155;DHT22;5118;48.570;7.916;2023-11-21T00:40:07;9.60;99.90
10155;DHT22;5118;48.570;7.916;2023-11-21T00:42:36;9.60;99.90
10155;DHT22;5118;48.570;7.916;2023-11-21T00:45:07;9.60;99.90
10155;DHT22;5118;48.570;7.916;2023-11-21T00:47:36;9.60;99.90
10155;DHT22;5118;48.570;7.916;2023-11-21T00:50:07;9.60;99.90
10155;DHT22;5118;48.570;7.916;2023-11-21T00:52:36;9.60;99.90
10155;DHT22;5118;48.570;7.916;2023-11-21T00:55:05;9.60;99.90
10155;DHT22;5118;48.570;7.916;2023-11-21T00:57:35;9.50;99.90
10155;DHT22;5118;48.570;7.916;2023-11-21T01:00:07;9.50;99.90
10155;DHT22;5118;48.570;7.916;2023-11-21T01:02:40;9.50;99.90
10155;DHT22;5118;48.570;7.916;2023-11-21T01:05:10;9.50;99.90
10155;DHT22;5118;48.570;7.916;2023-11-21T01:07:39;9.50;99.90
10155;DHT22;5118;48.570;7.916;2023-11-21T01:10:08;9.50;99.90
10155;DHT22;5118;48.570;7.916;2023-11-21T01:12:38;9.50;99.90
10155;DHT22;5118;48.570;7.916;2023-11-21T01:15:08;9.40;99.90
10155;DHT22;5118;48.570;7.916;2023-11-21T01:17:39;9.50;99.90
10155;DHT22;5118;48.570;7.916;2023-11-21T01:20:09;9.50;99.90
10155;DHT22;5118;48.570;7.916;2023-11-21T01:22:40;9.50;99.90
10155;DHT22;5118;48.570;7.916;2023-11-21T01:25:09;9.50;99.90
10155;DHT22;5118;48.570;7.916;2023-11-21T01:27:38;9.60;99.90
10155;DHT22;5118;48.570;7.916;2023-11-21T01:30:08;9.60;99.90
10155;DHT22;5118;48.570;7.916;2023-11-21T01:32:38;9.50;99.90
10155;DHT22;5118;48.570;7.916;2023-11-21T01:35:07;9.50;99.90
10155;DHT22;5118;48.570;7.916;2023-11-21T01:37:37;9.60;99.90
10155;DHT22;5118;48.570;7.916;2023-11-21T01:40:07;9.50;99.90
10155;DHT22;5118;48.570;7.916;2023-11-21T01:42:37;9.60;99.90
10155;DHT22;5118;48.570;7.916;2023-11-21T01:45:08;9.50;99.90
10155;DHT22;5118;48.570;7.916;2023-11-21T01:47:38;9.60;99.90
10155;DHT22;5118;48.570;7.916;2023-11-21T01:50:11;9.60;99.90
10155;DHT22;5118;48.570;7.916;2023-11-21T01:52:42;9.60;99.90
10155;DHT22;5118;48.570;7.916;2023-11-21T01:55:11;9.50;99.90
10155;DHT22;5118;48.570;7.916;2023-11-21T01:57:55;9.50;99.90
10155;DHT22;5118;48.570;7.916;2023-11-21T02:00:26;9.40;99.90
10155;DHT22;5118;48.570;7.916;2023-11-21T02:02:56;9.40;99.90
10155;DHT22;5118;48.570;7.916;2023-11-21T02:05:27;9.30;99.90
10155;DHT22;5118;48.570;7.916;2023-11-21T02:07:58;9.30;99.90
10155;DHT22;5118;48.570;7.916;2023-11-21T02:10:28;9.20;99.90
10155;DHT22;5118;48.570;7.916;2023-11-21T02:12:58;9.20;99.90
10155;DHT22;5118;48.570;7.916;2023-11-21T02:15:32;9.20;99.90
10155;DHT22;5118;48.570;7.916;2023-11-21T02:18:00;9.20;99.90
10155;DHT22;5118;48.570;7.916;2023-11-21T02:20:30;9.20;99.90
10155;DHT22;5118;48.570;7.916;2023-11-21T02:23:04;9.20;99.90
10155;DHT22;5118;48.570;7.916;2023-11-21T02:25:33;9.20;99.90
10155;DHT22;5118;48.570;7.916;2023-11-21T02:28:04;9.20;99.90
10155;DHT22;5118;48.570;7.916;2023-11-21T02:30:34;9.20;99.90
10155;DHT22;5118;48.570;7.916;2023-11-21T02:33:04;9.30;99.90
10155;DHT22;5118;48.570;7.916;2023-11-21T02:35:33;9.30;99.90
10155;DHT22;5118;48.570;7.916;2023-11-21T02:38:02;9.20;99.90
10155;DHT22;5118;48.570;7.916;2023-11-21T02:40:32;9.30;99.90
10155;DHT22;5118;48.570;7.916;2023-11-21T02:43:01;9.30;99.90
10155;DHT22;5118;48.570;7.916;2023-11-21T02:45:30;9.30;99.90
10155;DHT22;5118;48.570;7.916;2023-11-21T02:47:58;9.30;99.90
10155;DHT22;5118;48.570;7.916;2023-11-21T02:50:27;9.30;99.90
10155;DHT22;5118;48.570;7.916;2023-11-21T02:52:57;9.30;99.90
10155;DHT22;5118;48.570;7.916;2023-11-21T02:55:28;9.30;99.90
10155;DHT22;5118;48.570;7.916;2023-11-21T02:57:58;9.30;99.90
10155;DHT22;5118;48.570;7.916;2023-11-21T03:00:27;9.20;99.90
10155;DHT22;5118;48.570;7.916;2023-11-21T03:02:56;9.20;99.90
10155;DHT22;5118;48.570;7.916;2023-11-21T03:05:25;9.20;99.90
10155;DHT22;5118;48.570;7.916;2023-11-21T03:07:56;9.20;99.90
10155;DHT22;5118;48.570;7.916;2023-11-21T03:10:25;9.20;99.90
10155;DHT22;5118;48.570;7.916;2023-11-21T03:12:55;9.10;99.90
10155;DHT22;5118;48.570;7.916;2023-11-21T03:15:26;9.10;99.90
10155;DHT22;5118;48.570;7.916;2023-11-21T03:17:54;9.00;99.90
10155;DHT22;5118;48.570;7.916;2023-11-21T03:20:24;9.10;99.90
10155;DHT22;5118;48.570;7.916;2023-11-21T03:22:53;9.10;99.90
10155;DHT22;5118;48.570;7.916;2023-11-21T03:25:21;9.10;99.90
10155;DHT22;5118;48.570;7.916;2023-11-21T03:27:51;9.10;99.90
10155;DHT22;5118;48.570;7.916;2023-11-21T03:30:20;9.10;99.90
10155;DHT22;5118;48.570;7.916;2023-11-21T03:32:50;9.10;99.90
10155;DHT22;5118;48.570;7.916;2023-11-21T03:35:20;9.00;99.90
10155;DHT22;5118;48.570;7.916;2023-11-21T03:37:49;9.00;99.90
10155;DHT22;5118;48.570;7.916;2023-11-21T03:40:18;9.00;99.90
10155;DHT22;5118;48.570;7.916;2023-11-21T03:42:48;9.00;99.90
10155;DHT22;5118;48.570;7.916;2023-11-21T03:45:20;8.90;99.90
10155;DHT22;5118;48.570;7.916;2023-11-21T03:47:50;9.00;99.90
10155;DHT22;5118;48.570;7.916;2023-11-21T03:50:19;8.90;99.90
10155;DHT22;5118;48.570;7.916;2023-11-21T03:52:47;8.90;99.90
10155;DHT22;5118;48.570;7.916;2023-11-21T03:55:15;8.90;99.90
10155;DHT22;5118;48.570;7.916;2023-11-21T03:57:44;8.90;99.90
10155;DHT22;5118;48.570;7.916;2023-11-21T04:00:13;8.90;99.90
10155;DHT22;5118;48.570;7.916;2023-11-21T04:02:42;8.90;99.90
10155;DHT22;5118;48.570;7.916;2023-11-21T04:05:12;8.90;99.90
10155;DHT22;5118;48.570;7.916;2023-11-21T04:07:41;8.90;99.90
10155;DHT22;5118;48.570;7.916;2023-11-21T04:10:10;8.90;99.90
10155;DHT22;5118;48.570;7.916;2023-11-21T04:12:40;8.90;99.90
10155;DHT22;5118;48.570;7.916;2023-11-21T04:15:10;8.90;99.90
10155;DHT22;5118;48.570;7.916;2023-11-21T04:17:40;8.90;99.90
10155;DHT22;5118;48.570;7.916;2023-11-21T04:20:09;9.00;99.90
10155;DHT22;5118;48.570;7.916;2023-11-21T04:22:40;9.00;99.90
10155;DHT22;5118;48.570;7.916;2023-11-21T04:25:13;9.00;99.90
10155;DHT22;5118;48.570;7.916;2023-11-21T04:27:44;9.00;99.90
10155;DHT22;5118;48.570;7.916;2023-11-21T04:30:14;9.00;99.90
10155;DHT22;5118;48.570;7.916;2023-11-21T04:32:43;8.90;99.90
10155;DHT22;5118;48.570;7.916;2023-11-21T04:35:11;9.00;99.90
10155;DHT22;5118;48.570;7.916;2023-11-21T04:37:41;9.00;99.90
10155;DHT22;5118;48.570;7.916;2023-11-21T04:40:11;8.90;99.90
10155;DHT22;5118;48.570;7.916;2023-11-21T04:42:40;8.90;99.90
10155;DHT22;5118;48.570;7.916;2023-11-21T04:45:09;8.90;99.90
10155;DHT22;5118;48.570;7.916;2023-11-21T04:47:40;8.90;99.90
10155;DHT22;5118;48.570;7.916;2023-11-21T04:50:09;8.90;99.90
10155;DHT22;5118;48.570;7.916;2023-11-21T04:52:38;8.90;99.90
10155;DHT22;5118;48.570;7.916;2023-11-21T04:55:08;8.90;99.90
10155;DHT22;5118;48.570;7.916;2023-11-21T04:57:38;8.90;99.90
10155;DHT22;5118;48.570;7.916;2023-11-21T05:00:11;8.90;99.90
10155;DHT22;5118;48.570;7.916;2023-11-21T05:02:40;8.90;99.90
10155;DHT22;5118;48.570;7.916;2023-11-21T05:05:11;8.90;99.90
10155;DHT22;5118;48.570;7.916;2023-11-21T05:07:40;8.90;99.90
10155;DHT22;5118;48.570;7.916;2023-11-21T05:10:11;8.90;99.90
10155;DHT22;5118;48.570;7.916;2023-11-21T05:12:45;8.90;99.90
10155;DHT22;5118;48.570;7.916;2023-11-21T05:15:15;8.80;99.90
10155;DHT22;5118;48.570;7.916;2023-11-21T05:17:45;8.90;99.90
10155;DHT22;5118;48.570;7.916;2023-11-21T05:20:14;8.80;99.90
10155;DHT22;5118;48.570;7.916;2023-11-21T05:22:48;8.80;99.90
10155;DHT22;5118;48.570;7.916;2023-11-21T05:25:18;8.80;99.90
10155;DHT22;5118;48.570;7.916;2023-11-21T05:27:47;8.80;99.90
10155;DHT22;5118;48.570;7.916;2023-11-21T05:30:16;8.80;99.90
10155;DHT22;5118;48.570;7.916;2023-11-21T05:32:44;8.90;99.90
10155;DHT22;5118;48.570;7.916;2023-11-21T05:35:14;8.90;99.90
10155;DHT22;5118;48.570;7.916;2023-11-21T05:37:50;8.90;99.90
10155;DHT22;5118;48.570;7.916;2023-11-21T05:40:20;8.80;99.90
10155;DHT22;5118;48.570;7.916;2023-11-21T05:42:50;8.80;99.90
10155;DHT22;5118;48.570;7.916;2023-11-21T05:45:19;8.80;99.90
10155;DHT22;5118;48.570;7.916;2023-11-21T05:47:48;8.80;99.90
10155;DHT22;5118;48.570;7.916;2023-11-21T05:50:17;8.80;99.90
10155;DHT22;5118;48.570;7.916;2023-11-21T05:52:46;8.80;99.90
10155;DHT22;5118;48.570;7.916;2023-11-21T05:55:16;8.80;99.90
10155;DHT22;5118;48.570;7.916;2023-11-21T05:57:46;8.80;99.90
10155;DHT22;5118;48.570;7.916;2023-11-21T06:00:15;8.90;99.90
10155;DHT22;5118;48.570;7.916;2023-11-21T06:02:48;8.90;99.90
10155;DHT22;5118;48.570;7.916;2023-11-21T06:05:22;8.80;99.90
10155;DHT22;5118;48.570;7.916;2023-11-21T06:07:53;8.90;99.90
10155;DHT22;5118;48.570;7.916;2023-11-21T06:10:23;8.90;99.90
10155;DHT22;5118;48.570;7.916;2023-11-21T06:12:56;8.90;99.90
10155;DHT22;5118;48.570;7.916;2023-11-21T06:15:30;8.90;99.90
10155;DHT22;5118;48.570;7.916;2023-11-21T06:17:59;8.90;99.90
10155;DHT22;5118;48.570;7.916;2023-11-21T06:20:28;8.90;99.90
10155;DHT22;5118;48.570;7.916;2023-11-21T06:22:56;8.90;99.90
10155;DHT22;5118;48.570;7.916;2023-11-21T06:25:25;8.90;99.90
10155;DHT22;5118;48.570;7.916;2023-11-21T06:27:56;8.90;99.90
10155;DHT22;5118;48.570;7.916;2023-11-21T06:30:24;8.90;99.90
10155;DHT22;5118;48.570;7.916;2023-11-21T06:32:53;8.90;99.90
10155;DHT22;5118;48.570;7.916;2023-11-21T06:35:23;9.00;99.90
10155;DHT22;5118;48.570;7.916;2023-11-21T06:37:52;8.90;99.90
10155;DHT22;5118;48.570;7.916;2023-11-21T06:40:20;8.90;99.90
10155;DHT22;5118;48.570;7.916;2023-11-21T06:42:49;8.90;99.90
10155;DHT22;5118;48.570;7.916;2023-11-21T06:45:20;8.90;99.90
10155;DHT22;5118;48.570;7.916;2023-11-21T06:47:50;8.90;99.90
10155;DHT22;5118;48.570;7.916;2023-11-21T06:50:19;9.00;99.90
10155;DHT22;5118;48.570;7.916;2023-11-21T06:52:48;9.00;99.90
10155;DHT22;5118;48.570;7.916;2023-11-21T06:55:17;9.00;99.90
10155;DHT22;5118;48.570;7.916;2023-11-21T06:57:48;9.00;99.90
10155;DHT22;5118;48.570;7.916;2023-11-21T07:00:17;9.00;99.90
10155;DHT22;5118;48.570;7.916;2023-11-21T07:02:48;9.00;99.90
10155;DHT22;5118;48.570;7.916;2023-11-21T07:05:17;9.00;99.90
10155;DHT22;5118;48.570;7.916;2023-11-21T07:07:49;9.00;99.90
10155;DHT22;5118;48.570;7.916;2023-11-21T07:10:18;9.00;99.90
10155;DHT22;5118;48.570;7.916;2023-11-21T07:12:47;9.10;99.90
10155;DHT22;5118;48.570;7.916;2023-11-21T07:15:15;9.10;99.90
10155;DHT22;5118;48.570;7.916;2023-11-21T07:17:48;9.00;99.90
10155;DHT22;5118;48.570;7.916;2023-11-21T07:20:17;9.00;99.90
10155;DHT22;5118;48.570;7.916;2023-11-21T07:22:45;9.00;99.90
10155;DHT22;5118;48.570;7.916;2023-11-21T07:25:14;9.00;99.90
10155;DHT22;5118;48.570;7.916;2023-11-21T07:27:43;9.00;99.90
10155;DHT22;5118;48.570;7.916;2023-11-21T07:30:13;9.00;99.90
10155;DHT22;5118;48.570;7.916;2023-11-21T07:32:41;9.00;99.90
10155;DHT22;5118;48.570;7.916;2023-11-21T07:35:15;9.00;99.90
10155;DHT22;5118;48.570;7.916;2023-11-21T07:37:44;9.00;99.90
10155;DHT22;5118;48.570;7.916;2023-11-21T07:40:15;9.00;99.90
10155;DHT22;5118;48.570;7.916;2023-11-21T07:42:44;9.00;99.90
10155;DHT22;5118;48.570;7.916;2023-11-21T07:45:12;9.00;99.90
10155;DHT22;5118;48.570;7.916;2023-11-21T07:47:42;9.00;99.90
10155;DHT22;5118;48.570;7.916;2023-11-21T07:50:11;8.90;99.90
10155;DHT22;5118;48.570;7.916;2023-11-21T07:52:42;8.90;99.90
10155;DHT22;5118;48.570;7.916;2023-11-21T07:55:11;8.90;99.90
10155;DHT22;5118;48.570;7.916;2023-11-21T07:57:41;8.90;99.90
10155;DHT22;5118;48.570;7.916;2023-11-21T08:00:11;8.90;99.90
10155;DHT22;5118;48.570;7.916;2023-11-21T08:02:42;8.90;99.90
10155;DHT22;5118;48.570;7.916;2023-11-21T08:05:13;8.90;99.90
10155;DHT22;5118;48.570;7.916;2023-11-21T08:07:55;8.80;99.90
10155;DHT22;5118;48.570;7.916;2023-11-21T08:10:24;8.80;99.90
10155;DHT22;5118;48.570;7.916;2023-11-21T08:12:53;8.80;99.90
10155;DHT22;5118;48.570;7.916;2023-11-21T08:15:22;8.80;99.90
10155;DHT22;5118;48.570;7.916;2023-11-21T08:17:51;8.80;99.90
10155;DHT22;5118;48.570;7.916;2023-11-21T08:20:19;8.80;99.90
10155;DHT22;5118;48.570;7.916;2023-11-21T08:22:50;8.90;99.90
10155;DHT22;5118;48.570;7.916;2023-11-21T08:25:21;8.90;99.90
10155;DHT22;5118;48.570;7.916;2023-11-21T08:27:49;8.90;99.90
10155;DHT22;5118;48.570;7.916;2023-11-21T08:30:18;8.90;99.90
10155;DHT22;5118;48.570;7.916;2023-11-21T08:32:49;8.90;99.90
10155;DHT22;5118;48.570;7.916;2023-11-21T08:35:19;8.90;99.90
10155;DHT22;5118;48.570;7.916;2023-11-21T08:37:48;8.90;99.90
10155;DHT22;5118;48.570;7.916;2023-11-21T08:40:21;9.00;99.90
10155;DHT22;5118;48.570;7.916;2023-11-21T08:42:51;9.00;99.90
10155;DHT22;5118;48.570;7.916;2023-11-21T08:45:20;9.00;99.90
10155;DHT22;5118;48.570;7.916;2023-11-21T08:47:49;9.10;99.90
10155;DHT22;5118;48.570;7.916;2023-11-21T08:50:18;9.10;99.90
10155;DHT22;5118;48.570;7.916;2023-11-21T08:52:47;9.20;99.90
10155;DHT22;5118;48.570;7.916;2023-11-21T08:55:16;9.20;99.90
10155;DHT22;5118;48.570;7.916;2023-11-21T08:57:46;9.20;99.90
10155;DHT22;5118;48.570;7.916;2023-11-21T09:00:15;9.20;99.90
10155;DHT22;5118;48.570;7.916;2023-11-21T09:02:45;9.20;99.90
10155;DHT22;5118;48.570;7.916;2023-11-21T09:05:14;9.20;99.90
10155;DHT22;5118;48.570;7.916;2023-11-21T09:07:44;9.20;99.90
10155;DHT22;5118;48.570;7.916;2023-11-21T09:10:16;9.20;99.90
10155;DHT22;5118;48.570;7.916;2023-11-21T09:12:46;9.10;99.90
10155;DHT22;5118;48.570;7.916;2023-11-21T09:15:15;9.10;99.90
10155;DHT22;5118;48.570;7.916;2023-11-21T09:17:44;9.10;99.90
10155;DHT22;5118;48.570;7.916;2023-11-21T09:20:14;9.10;99.90
10155;DHT22;5118;48.570;7.916;2023-11-21T09:22:43;9.10;99.90
10155;DHT22;5118;48.570;7.916;2023-11-21T09:25:13;9.20;99.90
10155;DHT22;5118;48.570;7.916;2023-11-21T09:27:42;9.20;99.90
10155;DHT22;5118;48.570;7.916;2023-11-21T09:30:14;9.20;99.90
10155;DHT22;5118;48.570;7.916;2023-11-21T09:32:42;9.30;99.90
10155;DHT22;5118;48.570;7.916;2023-11-21T09:35:13;9.20;99.90
10155;DHT22;5118;48.570;7.916;2023-11-21T09:37:43;9.20;99.90
10155;DHT22;5118;48.570;7.916;2023-11-21T09:40:21;9.20;99.90
10155;DHT22;5118;48.570;7.916;2023-11-21T09:42:54;9.20;99.90
10155;DHT22;5118;48.570;7.916;2023-11-21T09:45:32;9.20;99.90
10155;DHT22;5118;48.570;7.916;2023-11-21T09:48:05;9.20;99.90
10155;DHT22;5118;48.570;7.916;2023-11-21T09:50:36;9.20;99.90
10155;DHT22;5118;48.570;7.916;2023-11-21T09:53:11;9.20;99.90
10155;DHT22;5118;48.570;7.916;2023-11-21T09:55:43;9.20;99.90
10155;DHT22;5118;48.570;7.916;2023-11-21T09:58:13;9.20;99.90
10155;DHT22;5118;48.570;7.916;2023-11-21T10:00:45;9.30;99.90
10155;DHT22;5118;48.570;7.916;2023-11-21T10:03:14;9.40;99.90
10155;DHT22;5118;48.570;7.916;2023-11-21T10:05:44;9.50;99.90
10155;DHT22;5118;48.570;7.916;2023-11-21T10:08:14;9.50;99.90
10155;DHT22;5118;48.570;7.916;2023-11-21T10:10:45;9.60;99.90
10155;DHT22;5118;48.570;7.916;2023-11-21T10:13:18;9.70;99.90
10155;DHT22;5118;48.570;7.916;2023-11-21T10:15:50;9.80;99.90
10155;DHT22;5118;48.570;7.916;2023-11-21T10:18:20;9.80;99.90
10155;DHT22;5118;48.570;7.916;2023-11-21T10:20:52;9.80;99.90
10155;DHT22;5118;48.570;7.916;2023-11-21T10:23:22;9.80;99.90
10155;DHT22;5118;48.570;7.916;2023-11-21T10:25:51;9.70;99.90
10155;DHT22;5118;48.570;7.916;2023-11-21T10:28:24;9.80;99.90
10155;DHT22;5118;48.570;7.916;2023-11-21T10:30:54;9.80;99.90
10155;DHT22;5118;48.570;7.916;2023-11-21T10:33:27;9.90;99.90
10155;DHT22;5118;48.570;7.916;2023-11-21T10:35:57;10.00;99.90
10155;DHT22;5118;48.570;7.916;2023-11-21T10:38:33;10.10;99.90
10155;DHT22;5118;48.570;7.916;2023-11-21T10:41:11;10.30;99.90
10155;DHT22;5118;48.570;7.916;2023-11-21T10:43:43;10.50;99.90
10155;DHT22;5118;48.570;7.916;2023-11-21T10:46:14;10.70;99.90
10155;DHT22;5118;48.570;7.916;2023-11-21T10:48:44;10.80;99.90
10155;DHT22;5118;48.570;7.916;2023-11-21T10:51:11;11.00;99.90
10155;DHT22;5118;48.570;7.916;2023-11-21T10:53:40;11.20;99.90
10155;DHT22;5118;48.570;7.916;2023-11-21T10:56:14;11.40;99.90
10155;DHT22;5118;48.570;7.916;2023-11-21T10:58:45;11.50;99.90
10155;DHT22;5118;48.570;7.916;2023-11-21T11:01:17;11.60;99.90
10155;DHT22;5118;48.570;7.916;2023-11-21T11:03:51;11.80;99.90
10155;DHT22;5118;48.570;7.916;2023-11-21T11:06:23;11.90;99.90
10155;DHT22;5118;48.570;7.916;2023-11-21T11:08:54;11.90;99.90
10155;DHT22;5118;48.570;7.916;2023-11-21T11:11:24;12.00;99.90
10155;DHT22;5118;48.570;7.916;2023-11-21T11:13:54;12.00;99.90
10155;DHT22;5118;48.570;7.916;2023-11-21T11:16:25;12.00;99.90
10155;DHT22;5118;48.570;7.916;2023-11-21T11:18:56;12.00;99.90
10155;DHT22;5118;48.570;7.916;2023-11-21T11:21:30;12.00;99.90
10155;DHT22;5118;48.570;7.916;2023-11-21T11:24:18;12.10;99.90
10155;DHT22;5118;48.570;7.916;2023-11-21T11:26:56;12.20;99.90
10155;DHT22;5118;48.570;7.916;2023-11-21T11:29:33;12.30;99.90
10155;DHT22;5118;48.570;7.916;2023-11-21T11:32:12;12.40;99.90
10155;DHT22;5118;48.570;7.916;2023-11-21T11:34:48;12.40;99.90
10155;DHT22;5118;48.570;7.916;2023-11-21T11:37:21;12.40;99.90
10155;DHT22;5118;48.570;7.916;2023-11-21T11:39:51;12.40;99.90
10155;DHT22;5118;48.570;7.916;2023-11-21T11:42:22;12.40;99.90
10155;DHT22;5118;48.570;7.916;2023-11-21T11:44:53;12.30;99.90
10155;DHT22;5118;48.570;7.916;2023-11-21T11:47:26;12.30;99.90
10155;DHT22;5118;48.570;7.916;2023-11-21T11:50:04;12.30;99.90
10155;DHT22;5118;48.570;7.916;2023-11-21T11:52:37;12.30;99.90
10155;DHT22;5118;48.570;7.916;2023-11-21T11:55:09;12.20;99.90
10155;DHT22;5118;48.570;7.916;2023-11-21T11:57:42;12.20;99.90
10155;DHT22;5118;48.570;7.916;2023-11-21T12:00:16;12.20;99.90
10155;DHT22;5118;48.570;7.916;2023-11-21T12:02:49;12.10;99.90
10155;DHT22;5118;48.570;7.916;2023-11-21T12:05:19;12.20;99.90
10155;DHT22;5118;48.570;7.916;2023-11-21T12:07:50;12.30;99.90
10155;DHT22;5118;48.570;7.916;2023-11-21T12:10:21;12.40;99.90
10155;DHT22;5118;48.570;7.916;2023-11-21T12:12:53;12.50;99.90
10155;DHT22;5118;48.570;7.916;2023-11-21T12:15:22;12.60;99.90
10155;DHT22;5118;48.570;7.916;2023-11-21T12:17:52;12.60;99.90
10155;DHT22;5118;48.570;7.916;2023-11-21T12:20:22;12.50;99.90
10155;DHT22;5118;48.570;7.916;2023-11-21T12:22:52;12.40;99.90
10155;DHT22;5118;48.570;7.916;2023-11-21T12:25:22;12.40;99.90
10155;DHT22;5118;48.570;7.916;2023-11-21T12:27:52;12.30;99.90
10155;DHT22;5118;48.570;7.916;2023-11-21T12:30:22;12.20;99.90
10155;DHT22;5118;48.570;7.916;2023-11-21T12:32:52;12.20;99.90
10155;DHT22;5118;48.570;7.916;2023-11-21T12:35:23;12.20;99.90
10155;DHT22;5118;48.570;7.916;2023-11-21T12:37:54;12.10;99.90
10155;DHT22;5118;48.570;7.916;2023-11-21T12:40:25;12.00;99.90
10155;DHT22;5118;48.570;7.916;2023-11-21T12:42:57;12.00;99.90
10155;DHT22;5118;48.570;7.916;2023-11-21T12:45:27;11.90;99.90
10155;DHT22;5118;48.570;7.916;2023-11-21T12:47:59;11.90;99.90
10155;DHT22;5118;48.570;7.916;2023-11-21T12:50:31;11.90;99.90
10155;DHT22;5118;48.570;7.916;2023-11-21T12:53:02;11.90;99.90
10155;DHT22;5118;48.570;7.916;2023-11-21T12:55:33;11.90;99.90
10155;DHT22;5118;48.570;7.916;2023-11-21T12:58:06;11.90;99.90
10155;DHT22;5118;48.570;7.916;2023-11-21T13:00:40;11.90;99.90
10155;DHT22;5118;48.570;7.916;2023-11-21T13:03:12;12.00;99.90
10155;DHT22;5118;48.570;7.916;2023-11-21T13:05:47;12.00;99.90
10155;DHT22;5118;48.570;7.916;2023-11-21T13:08:20;12.10;99.90
10155;DHT22;5118;48.570;7.916;2023-11-21T13:10:52;12.30;99.90
10155;DHT22;5118;48.570;7.916;2023-11-21T13:13:24;12.50;99.90
10155;DHT22;5118;48.570;7.916;2023-11-21T13:15:58;12.50;99.90
10155;DHT22;5118;48.570;7.916;2023-11-21T13:18:30;12.50;99.90
10155;DHT22;5118;48.570;7.916;2023-11-21T13:21:01;12.30;99.90
10155;DHT22;5118;48.570;7.916;2023-11-21T13:23:35;12.20;99.90
10155;DHT22;5118;48.570;7.916;2023-11-21T13:26:05;12.00;99.90
10155;DHT22;5118;48.570;7.916;2023-11-21T13:28:36;11.90;99.90
10155;DHT22;5118;48.570;7.916;2023-11-21T13:31:06;11.80;99.90
10155;DHT22;5118;48.570;7.916;2023-11-21T13:33:50;11.60;99.90
10155;DHT22;5118;48.570;7.916;2023-11-21T13:36:24;11.50;99.90
10155;DHT22;5118;48.570;7.916;2023-11-21T13:38:58;11.40;99.90
10155;DHT22;5118;48.570;7.916;2023-11-21T13:41:32;11.30;99.90
10155;DHT22;5118;48.570;7.916;2023-11-21T13:44:00;11.20;99.90
10155;DHT22;5118;48.570;7.916;2023-11-21T13:46:43;11.10;99.90
10155;DHT22;5118;48.570;7.916;2023-11-21T13:49:15;11.00;99.90
10155;DHT22;5118;48.570;7.916;2023-11-21T13:51:44;10.90;99.90
10155;DHT22;5118;48.570;7.916;2023-11-21T13:54:15;10.90;99.90
10155;DHT22;5118;48.570;7.916;2023-11-21T13:56:46;10.80;99.90
10155;DHT22;5118;48.570;7.916;2023-11-21T13:59:16;10.80;99.90
10155;DHT22;5118;48.570;7.916;2023-11-21T14:01:49;10.70;99.90
10155;DHT22;5118;48.570;7.916;2023-11-21T14:04:28;10.60;99.90
10155;DHT22;5118;48.570;7.916;2023-11-21T14:07:14;10.60;99.90
10155;DHT22;5118;48.570;7.916;2023-11-21T14:09:53;10.60;99.90
10155;DHT22;5118;48.570;7.916;2023-11-21T14:12:24;10.50;99.90
10155;DHT22;5118;48.570;7.916;2023-11-21T14:14:52;10.50;99.90
10155;DHT22;5118;48.570;7.916;2023-11-21T14:17:22;10.50;99.90
10155;DHT22;5118;48.570;7.916;2023-11-21T14:19:53;10.60;99.90
10155;DHT22;5118;48.570;7.916;2023-11-21T14:22:23;10.60;99.90
10155;DHT22;5118;48.570;7.916;2023-11-21T14:24:54;10.60;99.90
10155;DHT22;5118;48.570;7.916;2023-11-21T14:27:26;10.50;99.90
10155;DHT22;5118;48.570;7.916;2023-11-21T14:29:54;10.50;99.90
10155;DHT22;5118;48.570;7.916;2023-11-21T14:32:24;10.50;99.90
10155;DHT22;5118;48.570;7.916;2023-11-21T14:34:55;10.40;99.90
10155;DHT22;5118;48.570;7.916;2023-11-21T14:37:25;10.40;99.90
10155;DHT22;5118;48.570;7.916;2023-11-21T14:39:53;10.30;99.90
10155;DHT22;5118;48.570;7.916;2023-11-21T14:42:23;10.30;99.90
10155;DHT22;5118;48.570;7.916;2023-11-21T14:44:57;10.30;99.90
10155;DHT22;5118;48.570;7.916;2023-11-21T14:47:31;10.30;99.90
10155;DHT22;5118;48.570;7.916;2023-11-21T14:50:01;10.20;99.90
10155;DHT22;5118;48.570;7.916;2023-11-21T14:52:51;10.20;99.90
10155;DHT22;5118;48.570;7.916;2023-11-21T14:55:25;10.30;99.90
10155;DHT22;5118;48.570;7.916;2023-11-21T14:57:59;10.30;99.90
10155;DHT22;5118;48.570;7.916;2023-11-21T15:00:31;10.30;99.90
10155;DHT22;5118;48.570;7.916;2023-11-21T15:03:19;10.30;99.90
10155;DHT22;5118;48.570;7.916;2023-11-21T15:06:11;10.30;99.90
10155;DHT22;5118;48.570;7.916;2023-11-21T15:08:51;10.30;99.90
10155;DHT22;5118;48.570;7.916;2023-11-21T15:11:36;10.20;99.90
10155;DHT22;5118;48.570;7.916;2023-11-21T15:14:06;10.20;99.90
10155;DHT22;5118;48.570;7.916;2023-11-21T15:16:37;10.20;99.90
10155;DHT22;5118;48.570;7.916;2023-11-21T15:19:08;10.20;99.90
10155;DHT22;5118;48.570;7.916;2023-11-21T15:21:40;10.20;99.90
10155;DHT22;5118;48.570;7.916;2023-11-21T15:24:09;10.20;99.90
10155;DHT22;5118;48.570;7.916;2023-11-21T15:26:38;10.20;99.90
10155;DHT22;5118;48.570;7.916;2023-11-21T15:29:07;10.10;99.90
10155;DHT22;5118;48.570;7.916;2023-11-21T15:31:36;10.10;99.90
10155;DHT22;5118;48.570;7.916;2023-11-21T15:34:07;10.10;99.90
10155;DHT22;5118;48.570;7.916;2023-11-21T15:36:36;10.10;99.90
10155;DHT22;5118;48.570;7.916;2023-11-21T15:39:06;10.10;99.90
10155;DHT22;5118;48.570;7.916;2023-11-21T15:41:38;10.00;99.90
10155;DHT22;5118;48.570;7.916;2023-11-21T15:44:08;10.00;99.90
10155;DHT22;5118;48.570;7.916;2023-11-21T15:46:39;10.00;99.90
10155;DHT22;5118;48.570;7.916;2023-11-21T15:49:10;9.90;99.90
10155;DHT22;5118;48.570;7.916;2023-11-21T15:51:42;10.00;99.90
10155;DHT22;5118;48.570;7.916;2023-11-21T15:54:15;9.90;99.90
10155;DHT22;5118;48.570;7.916;2023-11-21T15:56:44;9.90;99.90
10155;DHT22;5118;48.570;7.916;2023-11-21T15:59:13;9.90;99.90
10155;DHT22;5118;48.570;7.916;2023-11-21T16:01:42;9.90;99.90
10155;DHT22;5118;48.570;7.916;2023-11-21T16:04:13;9.90;99.90
10155;DHT22;5118;48.570;7.916;2023-11-21T16:06:44;9.90;99.90
10155;DHT22;5118;48.570;7.916;2023-11-21T16:09:15;9.80;99.90
10155;DHT22;5118;48.570;7.916;2023-11-21T16:11:50;9.80;99.90
10155;DHT22;5118;48.570;7.916;2023-11-21T16:14:23;9.70;99.90
10155;DHT22;5118;48.570;7.916;2023-11-21T16:16:54;9.70;99.90
10155;DHT22;5118;48.570;7.916;2023-11-21T16:19:23;9.60;99.90